sensor_id;sensor_type;location;lat;lon;timestamp;pressure;altitude;pressure_sealevel;temperature;humidity
22872;BME280;11603;44.910;8.630;2022-07-29T00:02:21;100416.03;;;24.93;100.00
22872;BME280;11603;44.910;8.630;2022-07-29T00:04:46;100403.03;;;24.66;100.00
22872;BME280;11603;44.910;8.630;2022-07-29T00:07:12;100402.88;;;24.53;100.00
22872;BME280;11603;44.910;8.630;2022-07-29T00:09:37;100386.94;;;24.41;100.00
22872;BME280;11603;44.910;8.630;2022-07-29T00:12:03;100396.63;;;24.15;100.00
22872;BME280;11603;44.910;8.630;2022-07-29T00:14:29;100408.91;;;24.19;100.00
22872;BME280;11603;44.910;8.630;2022-07-29T00:16:54;100416.72;;;24.51;100.00
22872;BME280;11603;44.910;8.630;2022-07-29T00:19:20;100415.63;;;25.11;100.00
22872;BME280;11603;44.910;8.630;2022-07-29T00:21:45;100411.56;;;25.64;100.00
22872;BME280;11603;44.910;8.630;2022-07-29T00:24:10;100415.22;;;25.99;100.00
22872;BME280;11603;44.910;8.630;2022-07-29T00:26:36;100438.53;;;25.88;100.00
22872;BME280;11603;44.910;8.630;2022-07-29T00:29:03;100467.47;;;25.55;100.00
22872;BME280;11603;44.910;8.630;2022-07-29T00:31:29;100474.19;;;25.31;100.00
22872;BME280;11603;44.910;8.630;2022-07-29T00:33:55;100481.47;;;25.60;100.00
22872;BME280;11603;44.910;8.630;2022-07-29T00:36:21;100478.78;;;25.88;100.00
22872;BME280;11603;44.910;8.630;2022-07-29T00:38:48;100477.28;;;26.06;100.00
22872;BME280;11603;44.910;8.630;2022-07-29T00:41:14;100483.19;;;26.66;100.00
22872;BME280;11603;44.910;8.630;2022-07-29T00:43:39;100487.63;;;26.94;100.00
22872;BME280;11603;44.910;8.630;2022-07-29T00:46:06;100488.19;;;27.31;100.00
22872;BME280;11603;44.910;8.630;2022-07-29T00:48:31;100486.19;;;27.53;100.00
22872;BME280;11603;44.910;8.630;2022-07-29T00:50:58;100485.91;;;27.48;100.00
22872;BME280;11603;44.910;8.630;2022-07-29T00:53:25;100494.44;;;27.12;100.00
22872;BME280;11603;44.910;8.630;2022-07-29T00:55:50;100491.91;;;26.76;100.00
22872;BME280;11603;44.910;8.630;2022-07-29T00:58:16;100484.72;;;26.40;100.00
22872;BME280;11603;44.910;8.630;2022-07-29T01:00:42;100487.34;;;25.78;100.00
22872;BME280;11603;44.910;8.630;2022-07-29T01:03:08;100495.09;;;25.39;100.00
22872;BME280;11603;44.910;8.630;2022-07-29T01:05:34;100490.88;;;25.72;100.00
22872;BME280;11603;44.910;8.630;2022-07-29T01:08:01;100491.00;;;25.49;100.00
22872;BME280;11603;44.910;8.630;2022-07-29T01:10:27;100492.91;;;25.13;100.00
22872;BME280;11603;44.910;8.630;2022-07-29T01:12:54;100488.66;;;24.81;100.00
22872;BME280;11603;44.910;8.630;2022-07-29T01:15:21;100493.19;;;25.18;100.00
22872;BME280;11603;44.910;8.630;2022-07-29T01:18:01;100486.94;;;25.60;100.00
22872;BME280;11603;44.910;8.630;2022-07-29T01:21:16;100478.72;;;25.60;100.00
22872;BME280;11603;44.910;8.630;2022-07-29T01:29:29;100471.78;;;25.43;100.00
22872;BME280;11603;44.910;8.630;2022-07-29T01:32:04;100470.06;;;25.20;100.00
22872;BME280;11603;44.910;8.630;2022-07-29T01:34:44;100460.81;;;25.21;100.00
22872;BME280;11603;44.910;8.630;2022-07-29T01:37:19;100450.66;;;25.37;100.00
22872;BME280;11603;44.910;8.630;2022-07-29T01:39:49;100449.00;;;25.78;100.00
22872;BME280;11603;44.910;8.630;2022-07-29T01:42:26;100460.00;;;26.06;100.00
22872;BME280;11603;44.910;8.630;2022-07-29T01:44:57;100452.38;;;26.29;100.00
22872;BME280;11603;44.910;8.630;2022-07-29T01:47:31;100460.06;;;25.91;100.00
22872;BME280;11603;44.910;8.630;2022-07-29T01:49:59;100457.47;;;25.62;100.00
22872;BME280;11603;44.910;8.630;2022-07-29T01:52:43;100460.88;;;25.64;100.00
22872;BME280;11603;44.910;8.630;2022-07-29T01:55:13;100454.31;;;25.65;100.00
22872;BME280;11603;44.910;8.630;2022-07-29T01:57:42;100462.09;;;25.61;100.00
22872;BME280;11603;44.910;8.630;2022-07-29T02:00:09;100461.66;;;25.58;100.00
22872;BME280;11603;44.910;8.630;2022-07-29T02:02:40;100464.66;;;25.63;100.00
22872;BME280;11603;44.910;8.630;2022-07-29T02:05:10;100459.56;;;26.09;100.00
22872;BME280;11603;44.910;8.630;2022-07-29T02:07:38;100461.09;;;26.11;100.00
22872;BME280;11603;44.910;8.630;2022-07-29T02:10:06;100463.53;;;26.00;100.00
22872;BME280;11603;44.910;8.630;2022-07-29T02:12:35;100456.84;;;26.09;100.00
22872;BME280;11603;44.910;8.630;2022-07-29T02:15:03;100455.59;;;26.39;100.00
22872;BME280;11603;44.910;8.630;2022-07-29T02:17:37;100457.38;;;25.98;100.00
22872;BME280;11603;44.910;8.630;2022-07-29T02:20:05;100454.31;;;25.65;100.00
22872;BME280;11603;44.910;8.630;2022-07-29T02:22:33;100473.16;;;25.53;100.00
22872;BME280;11603;44.910;8.630;2022-07-29T02:25:00;100465.13;;;25.52;100.00
22872;BME280;11603;44.910;8.630;2022-07-29T02:27:28;100468.09;;;25.93;100.00
22872;BME280;11603;44.910;8.630;2022-07-29T02:29:55;100472.88;;;26.12;100.00
22872;BME280;11603;44.910;8.630;2022-07-29T02:32:24;100481.91;;;26.06;100.00
22872;BME280;11603;44.910;8.630;2022-07-29T02:34:51;100478.25;;;26.48;100.00
22872;BME280;11603;44.910;8.630;2022-07-29T02:37:18;100474.91;;;26.87;100.00
22872;BME280;11603;44.910;8.630;2022-07-29T02:39:44;100476.88;;;27.06;100.00
22872;BME280;11603;44.910;8.630;2022-07-29T02:42:13;100474.22;;;26.78;100.00
22872;BME280;11603;44.910;8.630;2022-07-29T02:44:40;100473.56;;;26.42;100.00
22872;BME280;11603;44.910;8.630;2022-07-29T02:47:44;100465.59;;;26.47;100.00
22872;BME280;11603;44.910;8.630;2022-07-29T02:50:17;100477.03;;;26.57;100.00
22872;BME280;11603;44.910;8.630;2022-07-29T02:52:45;100470.69;;;26.01;100.00
22872;BME280;11603;44.910;8.630;2022-07-29T02:55:22;100477.09;;;25.65;100.00
22872;BME280;11603;44.910;8.630;2022-07-29T02:58:01;100459.53;;;25.81;100.00
22872;BME280;11603;44.910;8.630;2022-07-29T03:00:29;100469.81;;;25.72;100.00
22872;BME280;11603;44.910;8.630;2022-07-29T03:02:57;100464.00;;;25.61;100.00
22872;BME280;11603;44.910;8.630;2022-07-29T03:05:24;100476.88;;;25.46;100.00
22872;BME280;11603;44.910;8.630;2022-07-29T03:07:54;100476.34;;;25.36;100.00
22872;BME280;11603;44.910;8.630;2022-07-29T03:10:21;100469.59;;;25.17;100.00
22872;BME280;11603;44.910;8.630;2022-07-29T03:12:47;100470.75;;;25.08;100.00
22872;BME280;11603;44.910;8.630;2022-07-29T03:15:13;100481.91;;;25.06;100.00
22872;BME280;11603;44.910;8.630;2022-07-29T03:17:40;100480.41;;;24.89;100.00
22872;BME280;11603;44.910;8.630;2022-07-29T03:20:07;100472.75;;;24.84;100.00
22872;BME280;11603;44.910;8.630;2022-07-29T03:22:39;100477.28;;;24.77;100.00
22872;BME280;11603;44.910;8.630;2022-07-29T03:25:09;100482.00;;;24.69;100.00
22872;BME280;11603;44.910;8.630;2022-07-29T03:27:35;100485.19;;;24.72;100.00
22872;BME280;11603;44.910;8.630;2022-07-29T03:30:00;100488.41;;;24.76;100.00
22872;BME280;11603;44.910;8.630;2022-07-29T03:32:25;100486.22;;;25.15;100.00
22872;BME280;11603;44.910;8.630;2022-07-29T03:34:51;100490.81;;;25.29;100.00
22872;BME280;11603;44.910;8.630;2022-07-29T03:37:16;100494.66;;;25.71;100.00
22872;BME280;11603;44.910;8.630;2022-07-29T03:39:42;100495.47;;;25.50;100.00
22872;BME280;11603;44.910;8.630;2022-07-29T03:42:11;100496.34;;;25.93;100.00
22872;BME280;11603;44.910;8.630;2022-07-29T03:44:42;100487.25;;;26.14;100.00
22872;BME280;11603;44.910;8.630;2022-07-29T03:47:10;100479.22;;;26.12;100.00
22872;BME280;11603;44.910;8.630;2022-07-29T03:49:37;100480.41;;;26.52;100.00
22872;BME280;11603;44.910;8.630;2022-07-29T03:52:06;100472.56;;;26.84;100.00
22872;BME280;11603;44.910;8.630;2022-07-29T03:54:31;100479.59;;;26.93;100.00
22872;BME280;11603;44.910;8.630;2022-07-29T03:56:59;100476.19;;;26.91;100.00
22872;BME280;11603;44.910;8.630;2022-07-29T03:59:26;100478.41;;;26.74;100.00
22872;BME280;11603;44.910;8.630;2022-07-29T04:01:53;100476.66;;;26.94;100.00
22872;BME280;11603;44.910;8.630;2022-07-29T04:04:19;100474.03;;;26.86;100.00
22872;BME280;11603;44.910;8.630;2022-07-29T04:06:45;100482.38;;;27.00;100.00
22872;BME280;11603;44.910;8.630;2022-07-29T04:09:12;100490.13;;;26.89;100.00
22872;BME280;11603;44.910;8.630;2022-07-29T04:11:41;100488.25;;;26.90;100.00
22872;BME280;11603;44.910;8.630;2022-07-29T04:14:07;100488.16;;;26.83;100.00
22872;BME280;11603;44.910;8.630;2022-07-29T04:16:32;100497.00;;;26.44;100.00
22872;BME280;11603;44.910;8.630;2022-07-29T04:18:58;100497.75;;;26.32;100.00
22872;BME280;11603;44.910;8.630;2022-07-29T04:21:24;100492.22;;;26.53;100.00
22872;BME280;11603;44.910;8.630;2022-07-29T04:23:50;100481.78;;;26.76;100.00
22872;BME280;11603;44.910;8.630;2022-07-29T04:26:19;100489.06;;;26.90;100.00
22872;BME280;11603;44.910;8.630;2022-07-29T04:28:46;100479.78;;;26.57;100.00
22872;BME280;11603;44.910;8.630;2022-07-29T04:31:12;100486.13;;;26.64;100.00
22872;BME280;11603;44.910;8.630;2022-07-29T04:33:38;100483.06;;;26.74;100.00
22872;BME280;11603;44.910;8.630;2022-07-29T04:36:04;100492.66;;;26.29;100.00
22872;BME280;11603;44.910;8.630;2022-07-29T04:38:30;100492.66;;;26.29;100.00
22872;BME280;11603;44.910;8.630;2022-07-29T04:40:55;100488.88;;;26.30;100.00
22872;BME280;11603;44.910;8.630;2022-07-29T04:43:21;100485.81;;;25.97;100.00
22872;BME280;11603;44.910;8.630;2022-07-29T04:45:46;100493.44;;;25.73;100.00
22872;BME280;11603;44.910;8.630;2022-07-29T04:48:12;100499.72;;;25.53;100.00
22872;BME280;11603;44.910;8.630;2022-07-29T04:50:38;100491.22;;;25.48;100.00
22872;BME280;11603;44.910;8.630;2022-07-29T04:53:03;100490.09;;;25.57;100.00
22872;BME280;11603;44.910;8.630;2022-07-29T04:55:29;100484.78;;;25.55;100.00
22872;BME280;11603;44.910;8.630;2022-07-29T04:57:55;100493.88;;;25.41;100.00
22872;BME280;11603;44.910;8.630;2022-07-29T05:00:20;100491.28;;;25.33;100.00
22872;BME280;11603;44.910;8.630;2022-07-29T05:02:45;100499.03;;;25.29;100.00
22872;BME280;11603;44.910;8.630;2022-07-29T05:05:11;100508.47;;;25.27;100.00
22872;BME280;11603;44.910;8.630;2022-07-29T05:07:36;100511.09;;;25.35;100.00
22872;BME280;11603;44.910;8.630;2022-07-29T05:10:02;100516.84;;;25.40;100.00
22872;BME280;11603;44.910;8.630;2022-07-29T05:12:28;100521.16;;;25.49;100.00
22872;BME280;11603;44.910;8.630;2022-07-29T05:14:53;100523.91;;;25.64;100.00
22872;BME280;11603;44.910;8.630;2022-07-29T05:17:19;100530.69;;;25.68;100.00
22872;BME280;11603;44.910;8.630;2022-07-29T05:19:45;100520.59;;;25.75;100.00
22872;BME280;11603;44.910;8.630;2022-07-29T05:22:10;100516.19;;;25.74;100.00
22872;BME280;11603;44.910;8.630;2022-07-29T05:24:36;100509.88;;;25.73;100.00
22872;BME280;11603;44.910;8.630;2022-07-29T05:27:01;100512.03;;;25.78;100.00
22872;BME280;11603;44.910;8.630;2022-07-29T05:29:27;100518.09;;;25.73;100.00
22872;BME280;11603;44.910;8.630;2022-07-29T05:31:52;100514.59;;;25.65;100.00
22872;BME280;11603;44.910;8.630;2022-07-29T05:34:18;100514.16;;;25.61;100.00
22872;BME280;11603;44.910;8.630;2022-07-29T05:36:44;100507.81;;;25.61;100.00
22872;BME280;11603;44.910;8.630;2022-07-29T05:39:10;100503.50;;;25.52;100.00
22872;BME280;11603;44.910;8.630;2022-07-29T05:41:36;100514.44;;;25.52;100.00
22872;BME280;11603;44.910;8.630;2022-07-29T05:44:02;100520.78;;;25.52;100.00
22872;BME280;11603;44.910;8.630;2022-07-29T05:46:27;100514.63;;;25.50;100.00
22872;BME280;11603;44.910;8.630;2022-07-29T05:48:53;100514.19;;;25.47;100.00
22872;BME280;11603;44.910;8.630;2022-07-29T05:51:19;100522.59;;;25.45;100.00
22872;BME280;11603;44.910;8.630;2022-07-29T05:53:44;100525.41;;;25.52;100.00
22872;BME280;11603;44.910;8.630;2022-07-29T05:56:10;100517.38;;;25.50;100.00
22872;BME280;11603;44.910;8.630;2022-07-29T05:58:35;100524.56;;;25.51;100.00
22872;BME280;11603;44.910;8.630;2022-07-29T06:01:02;100523.41;;;25.60;100.00
22872;BME280;11603;44.910;8.630;2022-07-29T06:03:28;100522.63;;;25.66;100.00
22872;BME280;11603;44.910;8.630;2022-07-29T06:05:53;100517.25;;;25.73;100.00
22872;BME280;11603;44.910;8.630;2022-07-29T06:08:19;100525.38;;;25.88;100.00
22872;BME280;11603;44.910;8.630;2022-07-29T06:10:45;100520.69;;;26.03;100.00
22872;BME280;11603;44.910;8.630;2022-07-29T06:13:11;100523.34;;;25.96;100.00
22872;BME280;11603;44.910;8.630;2022-07-29T06:15:37;100524.28;;;25.82;100.00
22872;BME280;11603;44.910;8.630;2022-07-29T06:18:03;100526.44;;;25.87;100.00
22872;BME280;11603;44.910;8.630;2022-07-29T06:20:29;100527.16;;;25.95;100.00
22872;BME280;11603;44.910;8.630;2022-07-29T06:22:55;100527.47;;;26.07;100.00
22872;BME280;11603;44.910;8.630;2022-07-29T06:25:21;100541.91;;;26.15;100.00
22872;BME280;11603;44.910;8.630;2022-07-29T06:27:46;100528.06;;;26.24;100.00
22872;BME280;11603;44.910;8.630;2022-07-29T06:30:12;100541.63;;;26.10;100.00
22872;BME280;11603;44.910;8.630;2022-07-29T06:32:38;100537.19;;;26.09;100.00
22872;BME280;11603;44.910;8.630;2022-07-29T06:35:04;100535.16;;;26.39;100.00
22872;BME280;11603;44.910;8.630;2022-07-29T06:37:29;100545.59;;;26.50;100.00
22872;BME280;11603;44.910;8.630;2022-07-29T06:39:55;100556.91;;;26.69;100.00
22872;BME280;11603;44.910;8.630;2022-07-29T06:42:43;100559.06;;;26.80;100.00
22872;BME280;11603;44.910;8.630;2022-07-29T06:45:09;100554.13;;;26.90;100.00
22872;BME280;11603;44.910;8.630;2022-07-29T06:47:35;100548.94;;;26.80;100.00
22872;BME280;11603;44.910;8.630;2022-07-29T06:50:00;100543.06;;;26.83;100.00
22872;BME280;11603;44.910;8.630;2022-07-29T06:52:26;100542.03;;;26.56;100.00
22872;BME280;11603;44.910;8.630;2022-07-29T06:54:51;100540.00;;;26.37;100.00
22872;BME280;11603;44.910;8.630;2022-07-29T06:57:17;100541.50;;;26.40;100.00
22872;BME280;11603;44.910;8.630;2022-07-29T06:59:42;100547.53;;;26.56;100.00
22872;BME280;11603;44.910;8.630;2022-07-29T07:02:08;100537.78;;;26.82;100.00
22872;BME280;11603;44.910;8.630;2022-07-29T07:04:33;100546.94;;;26.95;100.00
22872;BME280;11603;44.910;8.630;2022-07-29T07:06:59;100547.81;;;26.96;100.00
22872;BME280;11603;44.910;8.630;2022-07-29T07:09:25;100546.44;;;26.85;100.00
22872;BME280;11603;44.910;8.630;2022-07-29T07:11:50;100560.88;;;26.66;100.00
22872;BME280;11603;44.910;8.630;2022-07-29T07:14:16;100553.25;;;26.62;100.00
22872;BME280;11603;44.910;8.630;2022-07-29T07:16:41;100550.16;;;26.71;100.00
22872;BME280;11603;44.910;8.630;2022-07-29T07:19:07;100545.03;;;26.89;100.00
22872;BME280;11603;44.910;8.630;2022-07-29T07:21:32;100534.78;;;27.11;100.00
22872;BME280;11603;44.910;8.630;2022-07-29T07:23:59;100540.13;;;27.19;100.00
22872;BME280;11603;44.910;8.630;2022-07-29T07:26:25;100535.19;;;27.08;100.00
22872;BME280;11603;44.910;8.630;2022-07-29T07:28:50;100534.19;;;27.22;100.00
22872;BME280;11603;44.910;8.630;2022-07-29T07:31:16;100535.28;;;27.28;100.00
22872;BME280;11603;44.910;8.630;2022-07-29T07:33:41;100533.75;;;27.12;100.00
22872;BME280;11603;44.910;8.630;2022-07-29T07:36:07;100534.53;;;27.06;100.00
22872;BME280;11603;44.910;8.630;2022-07-29T07:38:32;100528.00;;;27.01;100.00
22872;BME280;11603;44.910;8.630;2022-07-29T07:40:58;100532.56;;;26.87;100.00
22872;BME280;11603;44.910;8.630;2022-07-29T07:43:24;100534.72;;;26.70;100.00
22872;BME280;11603;44.910;8.630;2022-07-29T07:45:49;100535.75;;;26.63;100.00
22872;BME280;11603;44.910;8.630;2022-07-29T07:48:15;100533.63;;;26.65;100.00
22872;BME280;11603;44.910;8.630;2022-07-29T07:50:40;100531.38;;;26.75;100.00
22872;BME280;11603;44.910;8.630;2022-07-29T07:53:06;100533.72;;;27.06;100.00
22872;BME280;11603;44.910;8.630;2022-07-29T07:55:31;100521.75;;;27.20;100.00
22872;BME280;11603;44.910;8.630;2022-07-29T07:57:57;100525.16;;;27.28;100.00
22872;BME280;11603;44.910;8.630;2022-07-29T08:00:22;100522.25;;;27.36;100.00
22872;BME280;11603;44.910;8.630;2022-07-29T08:02:48;100514.28;;;27.07;100.00
22872;BME280;11603;44.910;8.630;2022-07-29T08:05:13;100509.91;;;27.19;100.00
22872;BME280;11603;44.910;8.630;2022-07-29T08:07:45;100507.91;;;27.48;100.00
22872;BME280;11603;44.910;8.630;2022-07-29T08:10:16;100500.38;;;27.63;100.00
22872;BME280;11603;44.910;8.630;2022-07-29T08:13:06;100507.06;;;27.47;100.00
22872;BME280;11603;44.910;8.630;2022-07-29T08:15:32;100513.44;;;27.54;100.00
22872;BME280;11603;44.910;8.630;2022-07-29T08:17:58;100509.03;;;27.66;100.00
22872;BME280;11603;44.910;8.630;2022-07-29T08:20:25;100512.22;;;27.76;100.00
22872;BME280;11603;44.910;8.630;2022-07-29T08:22:51;100509.91;;;27.87;100.00
22872;BME280;11603;44.910;8.630;2022-07-29T08:25:18;100505.03;;;27.82;100.00
22872;BME280;11603;44.910;8.630;2022-07-29T08:27:46;100510.94;;;27.72;100.00
22872;BME280;11603;44.910;8.630;2022-07-29T08:30:11;100498.88;;;27.67;100.00
22872;BME280;11603;44.910;8.630;2022-07-29T08:32:37;100497.41;;;27.71;100.00
22872;BME280;11603;44.910;8.630;2022-07-29T08:35:03;100496.13;;;27.80;100.00
22872;BME280;11603;44.910;8.630;2022-07-29T08:37:28;100486.63;;;27.96;100.00
22872;BME280;11603;44.910;8.630;2022-07-29T08:39:54;100488.13;;;28.11;100.00
22872;BME280;11603;44.910;8.630;2022-07-29T08:42:19;100486.06;;;28.20;100.00
22872;BME280;11603;44.910;8.630;2022-07-29T08:44:45;100488.16;;;28.31;99.93
22872;BME280;11603;44.910;8.630;2022-07-29T08:47:13;100480.53;;;28.27;100.00
22872;BME280;11603;44.910;8.630;2022-07-29T08:49:39;100481.16;;;28.22;100.00
22872;BME280;11603;44.910;8.630;2022-07-29T08:52:05;100483.06;;;28.35;99.66
22872;BME280;11603;44.910;8.630;2022-07-29T08:54:31;100477.97;;;28.45;99.14
22872;BME280;11603;44.910;8.630;2022-07-29T08:56:58;100483.03;;;28.54;98.40
22872;BME280;11603;44.910;8.630;2022-07-29T08:59:25;100486.19;;;28.58;97.75
22872;BME280;11603;44.910;8.630;2022-07-29T09:01:53;100488.31;;;28.62;97.56
22872;BME280;11603;44.910;8.630;2022-07-29T09:04:20;100490.22;;;28.62;98.60
22872;BME280;11603;44.910;8.630;2022-07-29T09:06:51;100487.25;;;28.63;98.09
22872;BME280;11603;44.910;8.630;2022-07-29T09:09:17;100484.06;;;28.67;98.49
22872;BME280;11603;44.910;8.630;2022-07-29T09:11:43;100487.25;;;28.77;97.00
22872;BME280;11603;44.910;8.630;2022-07-29T09:14:11;100485.94;;;28.86;95.93
22872;BME280;11603;44.910;8.630;2022-07-29T09:17:03;100488.94;;;28.64;95.03
22872;BME280;11603;44.910;8.630;2022-07-29T09:19:31;100474.53;;;28.69;95.89
22872;BME280;11603;44.910;8.630;2022-07-29T09:22:00;100480.91;;;28.76;94.71
22872;BME280;11603;44.910;8.630;2022-07-29T09:24:46;100481.28;;;28.93;93.59
22872;BME280;11603;44.910;8.630;2022-07-29T09:27:23;100490.81;;;28.90;92.31
22872;BME280;11603;44.910;8.630;2022-07-29T09:30:05;100480.66;;;28.84;93.46
22872;BME280;11603;44.910;8.630;2022-07-29T09:32:32;100483.78;;;29.01;92.90
22872;BME280;11603;44.910;8.630;2022-07-29T09:35:15;100478.88;;;29.10;91.75
22872;BME280;11603;44.910;8.630;2022-07-29T09:37:42;100489.63;;;29.24;90.53
22872;BME280;11603;44.910;8.630;2022-07-29T09:40:19;100477.31;;;29.33;89.50
22872;BME280;11603;44.910;8.630;2022-07-29T09:42:45;100479.19;;;29.39;88.46
22872;BME280;11603;44.910;8.630;2022-07-29T09:45:12;100471.97;;;29.38;88.23
22872;BME280;11603;44.910;8.630;2022-07-29T09:47:46;100467.78;;;29.23;91.13
22872;BME280;11603;44.910;8.630;2022-07-29T09:50:14;100473.69;;;29.33;89.92
22872;BME280;11603;44.910;8.630;2022-07-29T09:52:48;100464.78;;;29.31;89.87
22872;BME280;11603;44.910;8.630;2022-07-29T09:55:14;100462.91;;;29.25;90.06
22872;BME280;11603;44.910;8.630;2022-07-29T09:57:41;100469.66;;;29.29;90.12
22872;BME280;11603;44.910;8.630;2022-07-29T10:00:08;100468.56;;;29.36;90.50
22872;BME280;11603;44.910;8.630;2022-07-29T10:02:41;100464.19;;;29.22;89.70
22872;BME280;11603;44.910;8.630;2022-07-29T10:05:29;100467.34;;;29.26;90.37
22872;BME280;11603;44.910;8.630;2022-07-29T10:07:56;100455.47;;;29.32;90.04
22872;BME280;11603;44.910;8.630;2022-07-29T10:10:27;100454.38;;;29.39;88.95
22872;BME280;11603;44.910;8.630;2022-07-29T10:12:58;100450.75;;;29.45;88.51
22872;BME280;11603;44.910;8.630;2022-07-29T10:15:27;100453.91;;;29.42;89.22
22872;BME280;11603;44.910;8.630;2022-07-29T10:17:55;100441.44;;;29.40;89.51
22872;BME280;11603;44.910;8.630;2022-07-29T10:20:22;100443.50;;;29.51;88.59
22872;BME280;11603;44.910;8.630;2022-07-29T10:22:49;100441.69;;;29.63;88.45
22872;BME280;11603;44.910;8.630;2022-07-29T10:25:16;100429.34;;;29.72;87.62
22872;BME280;11603;44.910;8.630;2022-07-29T10:27:43;100433.34;;;29.76;87.52
22872;BME280;11603;44.910;8.630;2022-07-29T10:30:13;100427.53;;;29.84;87.10
22872;BME280;11603;44.910;8.630;2022-07-29T10:35:54;100427.91;;;29.95;86.67
22872;BME280;11603;44.910;8.630;2022-07-29T10:41:01;100421.53;;;29.94;86.56
22872;BME280;11603;44.910;8.630;2022-07-29T10:43:50;100423.22;;;29.95;86.50
22872;BME280;11603;44.910;8.630;2022-07-29T10:46:17;100415.75;;;30.02;86.83
22872;BME280;11603;44.910;8.630;2022-07-29T10:52:02;100403.22;;;30.24;85.75
22872;BME280;11603;44.910;8.630;2022-07-29T10:54:48;100388.63;;;30.17;86.40
22872;BME280;11603;44.910;8.630;2022-07-29T10:57:29;100380.69;;;30.27;88.34
22872;BME280;11603;44.910;8.630;2022-07-29T11:05:19;100384.44;;;30.33;87.44
22872;BME280;11603;44.910;8.630;2022-07-29T11:10:37;100365.91;;;30.40;86.01
22872;BME280;11603;44.910;8.630;2022-07-29T11:13:03;100372.41;;;30.46;86.12
22872;BME280;11603;44.910;8.630;2022-07-29T11:15:28;100367.66;;;30.53;86.39
22872;BME280;11603;44.910;8.630;2022-07-29T11:29:03;100360.66;;;30.32;86.77
22872;BME280;11603;44.910;8.630;2022-07-29T11:31:50;100354.63;;;30.60;85.73
22872;BME280;11603;44.910;8.630;2022-07-29T11:47:22;100351.59;;;30.98;77.35
22872;BME280;11603;44.910;8.630;2022-07-29T11:49:48;100357.31;;;31.14;76.49
22872;BME280;11603;44.910;8.630;2022-07-29T11:52:13;100359.56;;;31.06;77.97
22872;BME280;11603;44.910;8.630;2022-07-29T11:54:42;100347.97;;;30.97;78.16
22872;BME280;11603;44.910;8.630;2022-07-29T11:57:09;100347.84;;;30.74;80.40
22872;BME280;11603;44.910;8.630;2022-07-29T11:59:45;100333.97;;;30.81;79.92
22872;BME280;11603;44.910;8.630;2022-07-29T12:02:12;100345.25;;;30.79;80.90
22872;BME280;11603;44.910;8.630;2022-07-29T12:04:55;100341.16;;;31.30;79.08
22872;BME280;11603;44.910;8.630;2022-07-29T12:07:31;100347.28;;;31.43;77.63
22872;BME280;11603;44.910;8.630;2022-07-29T12:09:57;100342.66;;;31.67;75.79
22872;BME280;11603;44.910;8.630;2022-07-29T12:12:23;100338.59;;;32.16;74.05
22872;BME280;11603;44.910;8.630;2022-07-29T12:14:48;100345.75;;;32.52;72.11
22872;BME280;11603;44.910;8.630;2022-07-29T12:19:56;100339.56;;;32.22;72.08
22872;BME280;11603;44.910;8.630;2022-07-29T12:22:31;100332.31;;;32.09;72.70
22872;BME280;11603;44.910;8.630;2022-07-29T12:25:03;100321.41;;;32.03;71.94
22872;BME280;11603;44.910;8.630;2022-07-29T12:27:29;100313.94;;;31.91;73.40
22872;BME280;11603;44.910;8.630;2022-07-29T12:30:02;100312.25;;;31.79;73.90
22872;BME280;11603;44.910;8.630;2022-07-29T12:32:55;100307.22;;;31.87;74.10
22872;BME280;11603;44.910;8.630;2022-07-29T12:35:20;100293.22;;;31.82;73.35
22872;BME280;11603;44.910;8.630;2022-07-29T12:37:48;100294.06;;;31.94;73.35
22872;BME280;11603;44.910;8.630;2022-07-29T12:40:17;100293.13;;;32.24;71.61
22872;BME280;11603;44.910;8.630;2022-07-29T12:43:09;100280.56;;;32.73;69.32
22872;BME280;11603;44.910;8.630;2022-07-29T12:45:36;100279.56;;;33.07;68.61
22872;BME280;11603;44.910;8.630;2022-07-29T12:48:01;100264.31;;;32.93;68.10
22872;BME280;11603;44.910;8.630;2022-07-29T12:50:28;100279.13;;;32.70;69.10
22872;BME280;11603;44.910;8.630;2022-07-29T12:52:53;100278.13;;;32.36;70.65
22872;BME280;11603;44.910;8.630;2022-07-29T12:55:42;100272.13;;;32.40;70.15
22872;BME280;11603;44.910;8.630;2022-07-29T12:58:08;100259.84;;;32.64;69.91
22872;BME280;11603;44.910;8.630;2022-07-29T13:00:34;100250.97;;;32.90;67.73
22872;BME280;11603;44.910;8.630;2022-07-29T13:03:00;100246.13;;;32.69;68.82
22872;BME280;11603;44.910;8.630;2022-07-29T13:05:43;100272.25;;;32.10;70.46
22872;BME280;11603;44.910;8.630;2022-07-29T13:08:18;100275.66;;;31.88;72.71
22872;BME280;11603;44.910;8.630;2022-07-29T13:10:45;100269.91;;;31.55;73.73
22872;BME280;11603;44.910;8.630;2022-07-29T13:13:12;100265.53;;;31.36;76.15
22872;BME280;11603;44.910;8.630;2022-07-29T13:15:40;100266.13;;;31.26;77.38
22872;BME280;11603;44.910;8.630;2022-07-29T13:18:28;100264.91;;;31.10;78.00
22872;BME280;11603;44.910;8.630;2022-07-29T13:20:54;100272.59;;;31.08;78.42
22872;BME280;11603;44.910;8.630;2022-07-29T13:23:20;100277.28;;;31.08;78.26
22872;BME280;11603;44.910;8.630;2022-07-29T13:25:46;100281.34;;;31.05;78.59
22872;BME280;11603;44.910;8.630;2022-07-29T13:28:11;100283.25;;;31.05;78.84
22872;BME280;11603;44.910;8.630;2022-07-29T13:30:40;100277.84;;;30.98;77.82
22872;BME280;11603;44.910;8.630;2022-07-29T13:33:06;100276.47;;;30.89;86.86
22872;BME280;11603;44.910;8.630;2022-07-29T13:35:32;100266.59;;;30.82;86.99
22872;BME280;11603;44.910;8.630;2022-07-29T13:37:57;100254.94;;;30.80;82.52
22872;BME280;11603;44.910;8.630;2022-07-29T13:40:23;100246.16;;;30.71;82.32